Аэропорт: Ужгород. Ужгород

ICAO: UKLU

METAR:
2018/09/19 07:30
UKLU 190730Z 00000MPS 9999 NSC 17/11 Q1023 R10/090070 NOSIG
METAR:
2018/08/04 18:39
TAF TAF UKLU 041831Z 0418/0506 CNL